Time;durP1;ratioP1;P1;durP2;ratioP2;P2;SDS_P1;SDS_P2;PMS_P1;PMS_P2;Temp;Humidity;BMP_temperature;BMP_pressure;BME280_temperature;BME280_humidity;BME280_pressure;Samples;Min_cycle;Max_cycle;Signal;HPM_P1;HPM_P2
2021/01/27 00:01:46;;;;;;;14.23;7.60;;;;;;;;;;5090478;28;20055;-62
2021/01/27 00:04:12;;;;;;;17.65;9.25;;;;;;;;;;5090763;28;20028;-62
2021/01/27 00:06:40;;;;;;;13.85;7.32;;;;;;;;;;5090780;28;20024;-62
2021/01/27 00:09:06;;;;;;;13.13;8.13;;;;;;;;;;5091792;28;20039;-62
2021/01/27 00:11:32;;;;;;;14.32;7.47;;;;;;;;;;5092045;28;20019;-62
2021/01/27 00:13:58;;;;;;;17.10;7.85;;;;;;;;;;5091995;28;20024;-66
2021/01/27 00:16:24;;;;;;;16.23;8.57;;;;;;;;;;5091641;28;20089;-63
2021/01/27 00:18:51;;;;;;;16.08;7.03;;;;;;;;;;5092051;28;20031;-62
2021/01/27 00:21:17;;;;;;;16.23;8.30;;;;;;;;;;5092157;28;20039;-63
2021/01/27 00:23:43;;;;;;;18.02;8.82;;;;;;;;;;5091554;28;20050;-62
2021/01/27 00:26:09;;;;;;;16.95;8.77;;;;;;;;;;5091862;28;20031;-62
2021/01/27 00:28:35;;;;;;;19.33;8.77;;;;;;;;;;5090559;28;20060;-62
2021/01/27 00:31:01;;;;;;;16.40;8.68;;;;;;;;;;5090086;28;20532;-62
2021/01/27 00:33:28;;;;;;;15.00;8.27;;;;;;;;;;5091949;28;20032;-62
2021/01/27 00:35:54;;;;;;;15.70;8.77;;;;;;;;;;5090036;28;20016;-62
2021/01/27 00:38:22;;;;;;;17.05;9.30;;;;;;;;;;5091934;28;20075;-62
2021/01/27 00:40:48;;;;;;;16.63;8.90;;;;;;;;;;5091992;28;20056;-63
2021/01/27 00:43:15;;;;;;;17.65;9.25;;;;;;;;;;5091414;28;20020;-62
2021/01/27 00:45:41;;;;;;;19.90;9.90;;;;;;;;;;5091776;28;20069;-62
2021/01/27 00:48:08;;;;;;;18.55;10.13;;;;;;;;;;5091650;28;20033;-62
2021/01/27 00:50:34;;;;;;;18.17;8.85;;;;;;;;;;5090076;28;20103;-62
2021/01/27 00:53:00;;;;;;;19.55;11.50;;;;;;;;;;5095130;28;20032;-62
2021/01/27 00:55:29;;;;;;;18.08;8.75;;;;;;;;;;5093960;28;20017;-62
2021/01/27 00:57:55;;;;;;;16.30;8.98;;;;;;;;;;5094993;28;20028;-62
2021/01/27 01:00:24;;;;;;;17.58;8.35;;;;;;;;;;5095391;28;20366;-62
2021/01/27 01:02:50;;;;;;;13.55;7.28;;;;;;;;;;5093935;28;20084;-62
2021/01/27 01:05:18;;;;;;;16.25;8.02;;;;;;;;;;5094692;28;20024;-62
2021/01/27 01:07:48;;;;;;;13.98;7.25;;;;;;;;;;5094974;28;20032;-62
2021/01/27 01:10:33;;;;;;;17.85;8.75;;;;;;;;;;5093682;28;20082;-62
2021/01/27 01:13:00;;;;;;;14.75;8.18;;;;;;;;;;5094862;28;20051;-62
2021/01/27 01:15:27;;;;;;;14.30;8.02;;;;;;;;;;5094856;28;20081;-62
2021/01/27 01:17:54;;;;;;;14.43;8.52;;;;;;;;;;5094854;28;20023;-62
2021/01/27 01:20:20;;;;;;;16.25;8.07;;;;;;;;;;5094631;28;20502;-62
2021/01/27 01:22:48;;;;;;;17.20;8.90;;;;;;;;;;5093444;28;20054;-62
2021/01/27 01:25:15;;;;;;;15.80;7.50;;;;;;;;;;5094252;28;20074;-62
2021/01/27 01:27:44;;;;;;;15.80;8.25;;;;;;;;;;5094431;28;20036;-62
2021/01/27 01:30:17;;;;;;;14.50;8.00;;;;;;;;;;5094600;28;20031;-62
2021/01/27 01:32:43;;;;;;;14.73;7.97;;;;;;;;;;5094333;28;20024;-62
2021/01/27 01:35:10;;;;;;;17.42;8.80;;;;;;;;;;5093466;28;20032;-62
2021/01/27 01:37:38;;;;;;;15.90;7.50;;;;;;;;;;5094511;28;20059;-63
2021/01/27 01:40:10;;;;;;;14.60;7.82;;;;;;;;;;5094198;28;20027;-62
2021/01/27 01:42:36;;;;;;;13.30;7.25;;;;;;;;;;5094550;28;20036;-62
2021/01/27 01:45:26;;;;;;;14.68;7.18;;;;;;;;;;5092811;28;20028;-62
2021/01/27 01:47:53;;;;;;;13.60;7.10;;;;;;;;;;5085792;28;20044;-62
2021/01/27 01:50:19;;;;;;;12.75;7.18;;;;;;;;;;5092883;28;20027;-62
2021/01/27 01:52:46;;;;;;;14.90;7.00;;;;;;;;;;5094143;28;20476;-62
2021/01/27 01:55:13;;;;;;;10.95;6.43;;;;;;;;;;5093750;28;20020;-62
2021/01/27 01:57:39;;;;;;;12.20;6.38;;;;;;;;;;5094039;28;20115;-62
2021/01/27 02:00:07;;;;;;;12.13;6.18;;;;;;;;;;5094210;28;20484;-62
2021/01/27 02:02:35;;;;;;;12.05;6.25;;;;;;;;;;5093766;28;20020;-62
2021/01/27 02:05:06;;;;;;;12.60;6.82;;;;;;;;;;5093846;28;20035;-62
2021/01/27 02:07:32;;;;;;;12.82;6.22;;;;;;;;;;5093382;28;20488;-62
2021/01/27 02:09:58;;;;;;;11.00;5.82;;;;;;;;;;5093772;28;20032;-62
2021/01/27 02:12:42;;;;;;;12.50;7.00;;;;;;;;;;5092491;28;20023;-62
2021/01/27 02:15:09;;;;;;;14.93;6.93;;;;;;;;;;5093319;28;20032;-62
2021/01/27 02:17:41;;;;;;;12.40;6.05;;;;;;;;;;5093686;28;20175;-62
2021/01/27 02:20:16;;;;;;;12.10;6.53;;;;;;;;;;5093741;28;20020;-62
2021/01/27 02:23:08;;;;;;;13.02;5.97;;;;;;;;;;5093459;28;20085;-62
2021/01/27 02:25:37;;;;;;;14.05;6.95;;;;;;;;;;5093542;28;20534;-62
2021/01/27 02:28:06;;;;;;;12.93;6.90;;;;;;;;;;5091904;28;20048;-62
2021/01/27 02:30:51;;;;;;;12.18;6.05;;;;;;;;;;5093055;28;20028;-62
2021/01/27 02:33:36;;;;;;;13.65;6.65;;;;;;;;;;5093325;28;20031;-62
2021/01/27 02:36:20;;;;;;;13.38;7.13;;;;;;;;;;5091634;28;20149;-62
2021/01/27 02:38:46;;;;;;;12.43;5.57;;;;;;;;;;5093336;28;20361;-62
2021/01/27 02:41:28;;;;;;;13.07;6.43;;;;;;;;;;5093486;28;20024;-62
2021/01/27 02:43:56;;;;;;;11.43;5.78;;;;;;;;;;5091489;28;20490;-62
2021/01/27 02:46:25;;;;;;;13.70;6.28;;;;;;;;;;5093091;28;20076;-63
2021/01/27 02:48:51;;;;;;;11.68;5.95;;;;;;;;;;5093014;28;20036;-62
2021/01/27 02:51:23;;;;;;;15.68;6.57;;;;;;;;;;5093130;28;20023;-62
2021/01/27 02:53:52;;;;;;;13.82;6.32;;;;;;;;;;5093036;28;20036;-62
2021/01/27 02:56:22;;;;;;;12.52;6.05;;;;;;;;;;5091626;28;20046;-62
2021/01/27 02:58:55;;;;;;;12.52;5.60;;;;;;;;;;5091395;28;20078;-62
2021/01/27 03:01:28;;;;;;;11.95;6.00;;;;;;;;;;5091871;28;20044;-62
2021/01/27 03:03:57;;;;;;;14.20;5.93;;;;;;;;;;5092671;28;20384;-62
2021/01/27 03:06:24;;;;;;;13.45;7.13;;;;;;;;;;5092754;28;20062;-62
2021/01/27 03:08:50;;;;;;;9.25;5.28;;;;;;;;;;5092643;28;20492;-62
2021/01/27 03:11:25;;;;;;;11.95;6.70;;;;;;;;;;5092367;28;20537;-62
2021/01/27 03:13:51;;;;;;;10.52;6.10;;;;;;;;;;5092258;28;20028;-62
2021/01/27 03:16:27;;;;;;;10.27;5.85;;;;;;;;;;5092681;28;20137;-62
2021/01/27 03:19:01;;;;;;;10.32;5.78;;;;;;;;;;5092319;28;20024;-63
2021/01/27 03:21:30;;;;;;;11.48;5.65;;;;;;;;;;5092811;28;20024;-62
2021/01/27 03:23:58;;;;;;;9.95;5.82;;;;;;;;;;5092636;28;20024;-62
2021/01/27 03:26:32;;;;;;;11.90;6.00;;;;;;;;;;5091973;28;20020;-62
2021/01/27 03:29:00;;;;;;;11.80;5.82;;;;;;;;;;5091449;28;20118;-62
2021/01/27 03:31:26;;;;;;;8.60;5.10;;;;;;;;;;5091181;28;20111;-62
2021/01/27 03:33:55;;;;;;;10.88;5.97;;;;;;;;;;5092057;28;20034;-62
2021/01/27 03:36:21;;;;;;;9.95;5.32;;;;;;;;;;5092533;28;20021;-62
2021/01/27 03:38:50;;;;;;;11.60;5.72;;;;;;;;;;5090750;28;20032;-62
2021/01/27 03:41:34;;;;;;;11.98;5.35;;;;;;;;;;5091350;28;20016;-62
2021/01/27 03:44:09;;;;;;;9.82;4.95;;;;;;;;;;5092363;28;20032;-64
2021/01/27 03:46:43;;;;;;;8.50;4.72;;;;;;;;;;5090785;28;20028;-62
2021/01/27 03:49:15;;;;;;;9.02;4.60;;;;;;;;;;5092254;28;20032;-62
2021/01/27 03:51:42;;;;;;;13.68;6.05;;;;;;;;;;5092373;28;20426;-62
2021/01/27 03:54:12;;;;;;;13.10;5.45;;;;;;;;;;5090559;28;20028;-62
2021/01/27 03:56:42;;;;;;;9.63;4.95;;;;;;;;;;5092345;28;20077;-63
2021/01/27 03:59:09;;;;;;;10.70;5.25;;;;;;;;;;5092397;28;20099;-62
2021/01/27 04:01:43;;;;;;;21.40;5.95;;;;;;;;;;5090647;28;20024;-62
2021/01/27 04:04:10;;;;;;;9.48;4.57;;;;;;;;;;5092214;28;20488;-62
2021/01/27 04:06:36;;;;;;;11.65;5.28;;;;;;;;;;5092132;28;20024;-62
2021/01/27 04:09:02;;;;;;;10.88;5.75;;;;;;;;;;5091811;28;20036;-62
2021/01/27 04:11:28;;;;;;;14.95;5.53;;;;;;;;;;5092186;28;20020;-62
2021/01/27 04:13:54;;;;;;;10.63;5.05;;;;;;;;;;5092055;28;20020;-62
2021/01/27 04:16:20;;;;;;;9.32;5.00;;;;;;;;;;5092487;28;20012;-62
2021/01/27 04:18:47;;;;;;;10.45;5.07;;;;;;;;;;5092213;28;20024;-62
2021/01/27 04:21:13;;;;;;;12.65;5.65;;;;;;;;;;5091753;28;20201;-61
2021/01/27 04:23:39;;;;;;;12.52;5.43;;;;;;;;;;5092054;28;20031;-62
2021/01/27 04:26:05;;;;;;;13.55;5.55;;;;;;;;;;5092513;28;20128;-61
2021/01/27 04:28:31;;;;;;;9.18;4.15;;;;;;;;;;5095318;28;20387;-62
2021/01/27 04:30:57;;;;;;;9.68;4.68;;;;;;;;;;5095824;28;20047;-62
2021/01/27 04:33:25;;;;;;;9.40;4.32;;;;;;;;;;5095741;28;20034;-62
2021/01/27 04:35:51;;;;;;;10.57;5.05;;;;;;;;;;5095572;28;20016;-62
2021/01/27 04:38:17;;;;;;;10.02;4.55;;;;;;;;;;5095853;28;20537;-61
2021/01/27 04:40:44;;;;;;;8.77;4.20;;;;;;;;;;5095651;28;20024;-62
2021/01/27 04:43:23;;;;;;;10.15;4.82;;;;;;;;;;5093824;28;20131;-62
2021/01/27 04:45:56;;;;;;;9.07;4.00;;;;;;;;;;5095477;28;20035;-63
2021/01/27 04:48:49;;;;;;;9.13;4.20;;;;;;;;;;5095400;28;20032;-63
2021/01/27 04:51:18;;;;;;;11.73;5.00;;;;;;;;;;5092130;28;20036;-63
2021/01/27 04:53:50;;;;;;;8.73;4.88;;;;;;;;;;5095332;28;20518;-63
2021/01/27 04:56:27;;;;;;;10.45;4.82;;;;;;;;;;5093800;28;20425;-63
2021/01/27 04:58:56;;;;;;;13.48;6.07;;;;;;;;;;5094104;28;20073;-63
2021/01/27 05:01:35;;;;;;;14.30;6.63;;;;;;;;;;5095237;28;20490;-63
2021/01/27 05:04:16;;;;;;;14.02;5.60;;;;;;;;;;5093464;28;20024;-62
2021/01/27 05:06:44;;;;;;;9.15;4.47;;;;;;;;;;5095279;28;20035;-63
2021/01/27 05:09:29;;;;;;;13.00;5.25;;;;;;;;;;5094995;28;20408;-63
2021/01/27 05:11:56;;;;;;;10.63;4.88;;;;;;;;;;5093248;28;20032;-62
2021/01/27 05:14:22;;;;;;;8.93;4.90;;;;;;;;;;5093646;28;20111;-62
2021/01/27 05:16:51;;;;;;;12.18;5.50;;;;;;;;;;5094127;28;20033;-63
2021/01/27 05:19:17;;;;;;;12.43;5.90;;;;;;;;;;5093339;28;20031;-63
2021/01/27 05:21:50;;;;;;;12.75;6.57;;;;;;;;;;5094031;28;20020;-62
2021/01/27 05:24:16;;;;;;;;;;;;;;;;;;5094848;28;20032;-64
2021/01/27 05:26:42;;;;;;;10.63;5.53;;;;;;;;;;5094557;28;19919;-64
2021/01/27 05:29:29;;;;;;;11.05;4.47;;;;;;;;;;5094223;28;20112;-64
2021/01/27 05:32:14;;;;;;;12.93;6.05;;;;;;;;;;5092150;28;20035;-63
2021/01/27 05:34:54;;;;;;;16.17;6.05;;;;;;;;;;5091409;28;20127;-63
2021/01/27 05:37:31;;;;;;;15.30;7.72;;;;;;;;;;5092277;28;20462;-64
2021/01/27 05:40:09;;;;;;;13.00;5.70;;;;;;;;;;5092509;28;20099;-64
2021/01/27 05:42:36;;;;;;;13.20;5.97;;;;;;;;;;5092779;28;20472;-63
2021/01/27 05:45:28;;;;;;;10.38;4.85;;;;;;;;;;5092512;28;20107;-63
2021/01/27 05:47:55;;;;;;;11.38;5.70;;;;;;;;;;5070502;28;20467;-64
2021/01/27 05:50:35;;;;;;;11.57;5.05;;;;;;;;;;5094267;28;20072;-64
2021/01/27 05:53:15;;;;;;;9.27;5.07;;;;;;;;;;5093837;28;20024;-64
2021/01/27 05:56:07;;;;;;;13.75;5.78;;;;;;;;;;5094243;28;20027;-63
2021/01/27 05:58:35;;;;;;;11.73;5.78;;;;;;;;;;5062546;28;20059;-63
2021/01/27 06:01:20;;;;;;;9.32;5.20;;;;;;;;;;5093794;28;20031;-64
2021/01/27 06:04:03;;;;;;;11.35;4.82;;;;;;;;;;5088762;28;20020;-62
2021/01/27 06:06:32;;;;;;;13.90;5.13;;;;;;;;;;5111256;28;20024;-63
2021/01/27 06:08:59;;;;;;;9.55;5.57;;;;;;;;;;5112823;28;20036;-63
2021/01/27 06:11:26;;;;;;;8.48;4.25;;;;;;;;;;5113286;28;20024;-63
2021/01/27 06:14:04;;;;;;;10.50;4.40;;;;;;;;;;5113749;28;20027;-63
2021/01/27 06:16:37;;;;;;;22.00;9.60;;;;;;;;;;5113837;28;20027;-63
2021/01/27 06:19:14;;;;;;;9.38;3.75;;;;;;;;;;5113656;28;20096;-62
2021/01/27 06:21:43;;;;;;;10.63;5.47;;;;;;;;;;5097171;28;20046;-62
2021/01/27 06:24:15;;;;;;;12.18;5.18;;;;;;;;;;5093208;28;20433;-61
2021/01/27 06:26:41;;;;;;;10.13;4.82;;;;;;;;;;5073823;28;20141;-62
2021/01/27 06:29:20;;;;;;;14.63;5.40;;;;;;;;;;5110830;28;20027;-62
2021/01/27 06:32:04;;;;;;;11.18;5.78;;;;;;;;;;5111211;28;20015;-61
2021/01/27 06:34:46;;;;;;;10.13;5.05;;;;;;;;;;5111435;28;20113;-62
2021/01/27 06:37:35;;;;;;;15.57;6.22;;;;;;;;;;5113719;28;20028;-62
2021/01/27 06:40:34;;;;;;;12.07;6.38;;;;;;;;;;5105689;28;20046;-61
2021/01/27 06:43:03;;;;;;;11.35;5.38;;;;;;;;;;5078313;28;20097;-62
2021/01/27 06:45:40;;;;;;;14.02;6.90;;;;;;;;;;5107809;28;20384;-62
2021/01/27 06:48:10;;;;;;;13.30;6.38;;;;;;;;;;5109896;28;20558;-63
2021/01/27 06:50:48;;;;;;;13.35;6.78;;;;;;;;;;5088954;28;20024;-62
2021/01/27 06:53:20;;;;;;;19.73;10.07;;;;;;;;;;5090488;28;20065;-61
2021/01/27 06:55:53;;;;;;;15.10;7.57;;;;;;;;;;5092102;28;20023;-61
2021/01/27 06:58:28;;;;;;;19.43;8.00;;;;;;;;;;5105778;28;20155;-60
2021/01/27 07:01:09;;;;;;;16.83;8.10;;;;;;;;;;5078831;28;20242;-60
2021/01/27 07:03:39;;;;;;;12.65;7.05;;;;;;;;;;5076699;28;20051;-60
2021/01/27 07:06:08;;;;;;;14.07;6.88;;;;;;;;;;5080804;28;20069;-61
2021/01/27 07:08:34;;;;;;;16.35;6.90;;;;;;;;;;5080956;28;20396;-61
2021/01/27 07:11:07;;;;;;;15.60;7.25;;;;;;;;;;5090519;28;20388;-61
2021/01/27 07:13:54;;;;;;;14.73;8.05;;;;;;;;;;5090711;28;20384;-61
2021/01/27 07:16:23;;;;;;;17.85;9.65;;;;;;;;;;5097959;28;20040;-60
2021/01/27 07:19:14;;;;;;;16.88;9.50;;;;;;;;;;5112683;28;20034;-60
2021/01/27 07:21:46;;;;;;;18.80;9.65;;;;;;;;;;5112402;28;20051;-61
2021/01/27 07:24:19;;;;;;;20.05;9.55;;;;;;;;;;5110553;28;20016;-61
2021/01/27 07:26:55;;;;;;;19.13;9.90;;;;;;;;;;5110749;28;20054;-61
2021/01/27 07:29:25;;;;;;;20.40;9.27;;;;;;;;;;5112009;28;20031;-62
2021/01/27 07:32:15;;;;;;;24.35;12.85;;;;;;;;;;5111824;28;20371;-60
2021/01/27 07:34:44;;;;;;;21.25;11.18;;;;;;;;;;5083777;28;20035;-62
2021/01/27 07:37:10;;;;;;;18.98;10.30;;;;;;;;;;5111010;28;20106;-61
2021/01/27 07:39:51;;;;;;;19.67;9.25;;;;;;;;;;5111915;28;20027;-62
2021/01/27 07:42:17;;;;;;;20.50;8.82;;;;;;;;;;5112576;28;20473;-61
2021/01/27 07:44:45;;;;;;;14.35;7.75;;;;;;;;;;5109476;28;20055;-61
2021/01/27 07:47:17;;;;;;;18.17;9.32;;;;;;;;;;5111118;28;20023;-61
2021/01/27 07:49:48;;;;;;;16.92;8.68;;;;;;;;;;5109033;28;20038;-61
2021/01/27 07:52:18;;;;;;;12.88;7.60;;;;;;;;;;5095559;28;20208;-61
2021/01/27 07:54:47;;;;;;;15.02;7.32;;;;;;;;;;5091287;28;20024;-61
2021/01/27 07:57:32;;;;;;;14.25;7.70;;;;;;;;;;5094374;28;20031;-61
2021/01/27 08:00:11;;;;;;;23.17;11.02;;;;;;;;;;5090676;28;20020;-61
2021/01/27 08:02:42;;;;;;;17.83;8.43;;;;;;;;;;5094057;28;20067;-61
2021/01/27 08:05:09;;;;;;;23.00;13.23;;;;;;;;;;5092570;28;20388;-61
2021/01/27 08:07:37;;;;;;;19.20;9.40;;;;;;;;;;5092396;28;20505;-61
2021/01/27 08:10:10;;;;;;;16.98;9.45;;;;;;;;;;5093434;28;20406;-61
2021/01/27 08:12:41;;;;;;;30.23;12.80;;;;;;;;;;5098982;28;20026;-60
2021/01/27 08:15:10;;;;;;;23.80;11.95;;;;;;;;;;5104271;28;20063;-61
2021/01/27 08:17:45;;;;;;;18.40;9.98;;;;;;;;;;5094552;28;20054;-61
2021/01/27 08:20:20;;;;;;;18.35;9.13;;;;;;;;;;5091879;28;20102;-61
2021/01/27 08:22:51;;;;;;;18.45;10.50;;;;;;;;;;5096142;28;20375;-61
2021/01/27 08:25:36;;;;;;;21.05;10.35;;;;;;;;;;5095006;28;20030;-62
2021/01/27 08:28:22;;;;;;;14.27;8.40;;;;;;;;;;5094913;28;20094;-61
2021/01/27 08:31:06;;;;;;;16.73;9.15;;;;;;;;;;5094869;28;20535;-62
2021/01/27 08:33:47;;;;;;;23.52;11.40;;;;;;;;;;5094286;28;20028;-61
2021/01/27 08:36:14;;;;;;;17.70;9.82;;;;;;;;;;5091908;28;20132;-60
2021/01/27 08:38:41;;;;;;;22.33;12.50;;;;;;;;;;5093345;28;20073;-60
2021/01/27 08:41:30;;;;;;;16.70;10.15;;;;;;;;;;5094407;28;20212;-61
2021/01/27 08:43:57;;;;;;;14.57;8.35;;;;;;;;;;5095355;28;20056;-59
2021/01/27 08:46:46;;;;;;;20.58;10.80;;;;;;;;;;5093466;28;20020;-61
2021/01/27 08:49:32;;;;;;;24.45;12.15;;;;;;;;;;5095064;28;20112;-61
2021/01/27 08:51:58;;;;;;;16.75;9.05;;;;;;;;;;5095246;28;20023;-60
2021/01/27 08:54:28;;;;;;;18.33;9.85;;;;;;;;;;5093882;28;20024;-60
2021/01/27 08:57:12;;;;;;;21.65;10.65;;;;;;;;;;5094899;28;20546;-60
2021/01/27 08:59:57;;;;;;;17.92;10.13;;;;;;;;;;5093800;28;20020;-61
2021/01/27 09:02:42;;;;;;;22.02;10.85;;;;;;;;;;5094730;28;20472;-60
2021/01/27 09:05:09;;;;;;;17.25;10.18;;;;;;;;;;5097924;28;20414;-60
2021/01/27 09:07:35;;;;;;;24.80;12.38;;;;;;;;;;5114339;28;20099;-60
2021/01/27 09:10:03;;;;;;;27.63;15.10;;;;;;;;;;5113776;28;20053;-60
2021/01/27 09:12:30;;;;;;;36.28;19.17;;;;;;;;;;5114372;28;20509;-61
2021/01/27 09:14:56;;;;;;;18.17;10.60;;;;;;;;;;5115232;28;20074;-61
2021/01/27 09:17:22;;;;;;;19.20;12.68;;;;;;;;;;5113193;28;20023;-60
2021/01/27 09:19:54;;;;;;;21.77;13.68;;;;;;;;;;5115128;28;20488;-61
2021/01/27 09:22:23;;;;;;;20.17;13.27;;;;;;;;;;5114966;28;20102;-62
2021/01/27 09:24:50;;;;;;;16.02;10.30;;;;;;;;;;5114459;28;20414;-62
2021/01/27 09:27:21;;;;;;;25.33;12.98;;;;;;;;;;5112629;28;20036;-62
2021/01/27 09:29:59;;;;;;;21.23;12.05;;;;;;;;;;5114735;28;20122;-62
2021/01/27 09:32:25;;;;;;;26.08;15.55;;;;;;;;;;5113860;28;20149;-61
2021/01/27 09:34:51;;;;;;;22.63;13.68;;;;;;;;;;5113497;28;20027;-62
2021/01/27 09:37:20;;;;;;;23.80;14.23;;;;;;;;;;5114250;28;20019;-62
2021/01/27 09:40:06;;;;;;;26.65;16.45;;;;;;;;;;5112576;28;20020;-62
2021/01/27 09:42:33;;;;;;;36.95;19.83;;;;;;;;;;5113293;28;20149;-62
2021/01/27 09:45:09;;;;;;;28.77;16.15;;;;;;;;;;5113159;28;20090;-62
2021/01/27 09:47:38;;;;;;;18.70;11.85;;;;;;;;;;5111204;28;20028;-63
2021/01/27 09:50:06;;;;;;;22.05;13.27;;;;;;;;;;5112301;28;20110;-62
2021/01/27 09:52:33;;;;;;;17.73;9.95;;;;;;;;;;5112052;28;20091;-62
2021/01/27 09:55:09;;;;;;;15.65;9.80;;;;;;;;;;5111051;28;20073;-62
2021/01/27 09:57:36;;;;;;;20.23;11.60;;;;;;;;;;5112327;28;20479;-61
2021/01/27 10:00:05;;;;;;;13.63;9.25;;;;;;;;;;5112122;28;20027;-61
2021/01/27 10:02:33;;;;;;;23.02;13.13;;;;;;;;;;5104038;28;20031;-63
2021/01/27 10:05:00;;;;;;;17.08;9.32;;;;;;;;;;5112986;28;20115;-62
2021/01/27 10:07:38;;;;;;;21.17;10.80;;;;;;;;;;5111890;28;20020;-63
2021/01/27 10:10:08;;;;;;;21.55;13.25;;;;;;;;;;5112487;28;20508;-63
2021/01/27 10:12:35;;;;;;;24.83;15.50;;;;;;;;;;5113095;28;20054;-61
2021/01/27 10:15:16;;;;;;;16.75;10.98;;;;;;;;;;5113607;28;20024;-62
2021/01/27 10:17:42;;;;;;;15.77;8.90;;;;;;;;;;5113547;28;20104;-62
2021/01/27 10:20:22;;;;;;;15.63;8.73;;;;;;;;;;5093098;28;20020;-63
2021/01/27 10:22:59;;;;;;;15.70;8.40;;;;;;;;;;5093748;28;20073;-62
2021/01/27 10:25:27;;;;;;;19.40;10.82;;;;;;;;;;5112113;28;20511;-61
2021/01/27 10:28:03;;;;;;;15.85;10.27;;;;;;;;;;5112689;28;20047;-61
2021/01/27 10:30:30;;;;;;;11.73;7.40;;;;;;;;;;5112685;28;20099;-62
2021/01/27 10:32:57;;;;;;;13.05;7.85;;;;;;;;;;5091819;28;20047;-60
2021/01/27 10:35:23;;;;;;;14.52;8.48;;;;;;;;;;5091469;28;20464;-61
2021/01/27 10:38:12;;;;;;;25.60;13.32;;;;;;;;;;5093160;28;20425;-61
2021/01/27 10:40:38;;;;;;;17.63;10.55;;;;;;;;;;5091172;28;20115;-62
2021/01/27 10:43:24;;;;;;;15.02;8.60;;;;;;;;;;5091415;28;20052;-61
2021/01/27 10:45:50;;;;;;;15.23;8.43;;;;;;;;;;5091411;28;20380;-61
2021/01/27 10:48:26;;;;;;;17.85;10.32;;;;;;;;;;5092419;28;20086;-61
2021/01/27 10:50:55;;;;;;;24.40;10.55;;;;;;;;;;5092888;28;20055;-61
2021/01/27 10:53:21;;;;;;;17.52;10.43;;;;;;;;;;5091352;28;20440;-61
2021/01/27 10:55:55;;;;;;;19.52;11.48;;;;;;;;;;5090730;28;20027;-60
2021/01/27 10:58:22;;;;;;;15.82;9.32;;;;;;;;;;5092147;28;20107;-61
2021/01/27 11:00:48;;;;;;;12.60;7.93;;;;;;;;;;5092277;28;20371;-60
2021/01/27 11:03:14;;;;;;;10.55;6.05;;;;;;;;;;5090334;28;20024;-59
2021/01/27 11:05:41;;;;;;;14.23;7.05;;;;;;;;;;5089984;28;20464;-61
2021/01/27 11:08:11;;;;;;;11.50;6.88;;;;;;;;;;5092341;28;20066;-60
2021/01/27 11:10:37;;;;;;;13.05;7.13;;;;;;;;;;5092166;28;20408;-60
2021/01/27 11:13:03;;;;;;;18.05;9.32;;;;;;;;;;5092639;28;20380;-62
2021/01/27 11:15:30;;;;;;;21.48;11.23;;;;;;;;;;5092479;28;20016;-60
2021/01/27 11:17:56;;;;;;;15.98;9.20;;;;;;;;;;5091988;28;20016;-62
2021/01/27 11:20:23;;;;;;;18.67;10.38;;;;;;;;;;5091444;28;20473;-61
2021/01/27 11:22:50;;;;;;;23.27;12.48;;;;;;;;;;5092648;28;20522;-61
2021/01/27 11:25:21;;;;;;;23.30;13.63;;;;;;;;;;5092128;28;20492;-61
2021/01/27 11:27:47;;;;;;;22.15;12.18;;;;;;;;;;5091097;28;20067;-62
2021/01/27 11:30:14;;;;;;;20.40;10.95;;;;;;;;;;5090346;28;20516;-59
2021/01/27 11:32:40;;;;;;;15.10;9.10;;;;;;;;;;5108347;28;20595;-59
2021/01/27 11:35:07;;;;;;;18.33;9.60;;;;;;;;;;5089295;28;20028;-60
2021/01/27 11:37:33;;;;;;;13.52;7.68;;;;;;;;;;5089933;28;20495;-59
2021/01/27 11:39:59;;;;;;;13.60;7.88;;;;;;;;;;5089517;28;20028;-60
2021/01/27 11:42:26;;;;;;;17.40;8.65;;;;;;;;;;5089464;28;20046;-60
2021/01/27 11:44:52;;;;;;;20.40;9.60;;;;;;;;;;5091251;28;20020;-60
2021/01/27 11:47:19;;;;;;;12.93;7.00;;;;;;;;;;5090676;28;20100;-60
2021/01/27 11:49:46;;;;;;;18.90;8.85;;;;;;;;;;5097731;28;20122;-60
2021/01/27 11:52:13;;;;;;;12.80;6.85;;;;;;;;;;5110090;28;20023;-61
2021/01/27 11:54:42;;;;;;;15.30;7.85;;;;;;;;;;5109334;28;20024;-61
2021/01/27 11:57:09;;;;;;;19.63;11.18;;;;;;;;;;5110489;28;20024;-65
2021/01/27 11:59:36;;;;;;;18.27;8.85;;;;;;;;;;5108546;28;20392;-60
2021/01/27 12:02:03;;;;;;;23.65;12.93;;;;;;;;;;5111155;28;20024;-62
2021/01/27 12:04:29;;;;;;;20.60;9.80;;;;;;;;;;5112475;28;20028;-62
2021/01/27 12:06:55;;;;;;;25.75;13.82;;;;;;;;;;5112058;28;20028;-62
2021/01/27 12:09:21;;;;;;;17.02;9.43;;;;;;;;;;5112101;28;20117;-62
2021/01/27 12:11:48;;;;;;;17.08;9.15;;;;;;;;;;5112057;28;20463;-62
2021/01/27 12:14:14;;;;;;;24.10;13.07;;;;;;;;;;5110562;28;20027;-62
2021/01/27 12:16:40;;;;;;;13.05;7.53;;;;;;;;;;5112284;28;20049;-61
2021/01/27 12:19:06;;;;;;;10.88;7.25;;;;;;;;;;5112521;28;20497;-61
2021/01/27 12:21:32;;;;;;;13.45;7.07;;;;;;;;;;5111906;28;20020;-64
2021/01/27 12:24:00;;;;;;;17.98;11.23;;;;;;;;;;5111019;28;20110;-62
2021/01/27 12:26:26;;;;;;;17.10;10.25;;;;;;;;;;5110158;28;20506;-62
2021/01/27 12:28:53;;;;;;;16.35;9.13;;;;;;;;;;5111910;28;20031;-62
2021/01/27 12:31:19;;;;;;;19.25;11.07;;;;;;;;;;5111360;28;20448;-63
2021/01/27 12:33:45;;;;;;;14.45;7.65;;;;;;;;;;5111665;28;20055;-64
2021/01/27 12:36:11;;;;;;;15.43;8.13;;;;;;;;;;5111124;28;20027;-64
2021/01/27 12:38:38;;;;;;;18.63;9.32;;;;;;;;;;5112229;28;20586;-64
2021/01/27 12:41:04;;;;;;;13.88;7.47;;;;;;;;;;5111863;28;20055;-64
2021/01/27 12:43:30;;;;;;;12.63;7.15;;;;;;;;;;5112134;28;20031;-63
2021/01/27 12:45:56;;;;;;;16.25;8.57;;;;;;;;;;5110612;28;20556;-64
2021/01/27 12:48:23;;;;;;;18.13;9.70;;;;;;;;;;5113056;28;20145;-63
2021/01/27 12:50:49;;;;;;;11.45;7.55;;;;;;;;;;5115777;28;20024;-63
2021/01/27 12:53:16;;;;;;;12.05;7.90;;;;;;;;;;5115326;28;20106;-64
2021/01/27 12:55:42;;;;;;;16.65;9.20;;;;;;;;;;5112480;28;20027;-64
2021/01/27 12:58:08;;;;;;;13.27;8.18;;;;;;;;;;5115874;28;20024;-64
2021/01/27 13:00:34;;;;;;;11.38;6.63;;;;;;;;;;5114323;28;20020;-63
2021/01/27 13:03:02;;;;;;;14.82;8.32;;;;;;;;;;5115227;28;20081;-63
2021/01/27 13:05:28;;;;;;;18.63;10.73;;;;;;;;;;5114511;28;20035;-64
2021/01/27 13:07:54;;;;;;;18.75;10.38;;;;;;;;;;5115406;28;20484;-63
2021/01/27 13:10:20;;;;;;;18.13;10.50;;;;;;;;;;5115099;28;20027;-63
2021/01/27 13:12:46;;;;;;;11.88;7.75;;;;;;;;;;5114309;28;20473;-64
2021/01/27 13:15:14;;;;;;;14.95;7.95;;;;;;;;;;5113965;28;20072;-63
2021/01/27 13:17:40;;;;;;;17.63;10.30;;;;;;;;;;5115105;28;20019;-64
2021/01/27 13:20:09;;;;;;;19.70;10.85;;;;;;;;;;5115439;28;20031;-64
2021/01/27 13:22:36;;;;;;;16.40;11.32;;;;;;;;;;5114839;27;20051;-63
2021/01/27 13:25:02;;;;;;;16.17;8.63;;;;;;;;;;5115102;28;20023;-63
2021/01/27 13:27:28;;;;;;;11.65;6.53;;;;;;;;;;5114787;28;20112;-64
2021/01/27 13:29:54;;;;;;;13.85;8.20;;;;;;;;;;5114719;28;20036;-63
2021/01/27 13:32:20;;;;;;;21.90;12.20;;;;;;;;;;5115072;28;20054;-64
2021/01/27 13:34:47;;;;;;;16.73;9.15;;;;;;;;;;5115118;27;20023;-64
2021/01/27 13:37:15;;;;;;;18.95;11.60;;;;;;;;;;5114843;28;20030;-64
2021/01/27 13:39:42;;;;;;;38.85;11.85;;;;;;;;;;5115152;28;20026;-63
2021/01/27 13:42:09;;;;;;;16.73;9.20;;;;;;;;;;5114895;28;20020;-63
2021/01/27 13:44:35;;;;;;;14.57;8.88;;;;;;;;;;5113203;28;20501;-63
2021/01/27 13:47:02;;;;;;;19.05;10.10;;;;;;;;;;5113646;28;20487;-64
2021/01/27 13:49:28;;;;;;;14.63;9.38;;;;;;;;;;5114845;28;20043;-63
2021/01/27 13:51:54;;;;;;;17.63;9.43;;;;;;;;;;5114230;28;20024;-64
2021/01/27 13:54:20;;;;;;;14.10;9.27;;;;;;;;;;5114606;28;20030;-63
2021/01/27 13:56:46;;;;;;;13.63;7.35;;;;;;;;;;5114541;28;20020;-64
2021/01/27 13:59:12;;;;;;;15.63;7.97;;;;;;;;;;5113880;28;20533;-63
2021/01/27 14:01:38;;;;;;;17.67;10.85;;;;;;;;;;5114611;28;20069;-63
2021/01/27 14:04:05;;;;;;;18.02;11.02;;;;;;;;;;5114389;28;20027;-63
2021/01/27 14:06:32;;;;;;;14.93;8.32;;;;;;;;;;5114009;28;20081;-64
2021/01/27 14:08:58;;;;;;;19.95;10.55;;;;;;;;;;5114231;28;20055;-63
2021/01/27 14:11:24;;;;;;;14.38;8.48;;;;;;;;;;5114321;28;20019;-63
2021/01/27 14:13:50;;;;;;;15.73;9.38;;;;;;;;;;5113918;28;20028;-64
2021/01/27 14:16:17;;;;;;;17.63;10.98;;;;;;;;;;5112831;28;20027;-63
2021/01/27 14:18:43;;;;;;;11.95;6.78;;;;;;;;;;5114199;28;20482;-64
2021/01/27 14:21:09;;;;;;;17.95;10.18;;;;;;;;;;5113753;28;20023;-64
2021/01/27 14:23:35;;;;;;;23.48;13.15;;;;;;;;;;5113968;28;20028;-64
2021/01/27 14:26:02;;;;;;;18.85;10.40;;;;;;;;;;5112450;28;20524;-64
2021/01/27 14:28:28;;;;;;;18.17;10.65;;;;;;;;;;5113913;28;20048;-64
2021/01/27 14:30:55;;;;;;;14.68;8.82;;;;;;;;;;5114008;28;20015;-64
2021/01/27 14:33:21;;;;;;;17.08;9.45;;;;;;;;;;5113643;28;20026;-68
2021/01/27 14:35:47;;;;;;;16.00;7.90;;;;;;;;;;5112714;28;20042;-64
2021/01/27 14:38:18;;;;;;;18.98;11.43;;;;;;;;;;5113924;28;20048;-63
2021/01/27 14:40:44;;;;;;;17.55;11.68;;;;;;;;;;5113592;28;20087;-62
2021/01/27 14:43:10;;;;;;;18.98;10.70;;;;;;;;;;5113621;28;20023;-62
2021/01/27 14:45:36;;;;;;;15.43;8.93;;;;;;;;;;5113556;28;20020;-63
2021/01/27 14:48:04;;;;;;;16.20;9.82;;;;;;;;;;5113083;28;20039;-62